Time;durP1;ratioP1;P1;durP2;ratioP2;P2;SDS_P1;SDS_P2;PMS_P1;PMS_P2;Temp;Humidity;BMP_temperature;BMP_pressure;BME280_temperature;BME280_humidity;BME280_pressure;Samples;Min_cycle;Max_cycle;Signal;HPM_P1;HPM_P2
2024/01/17 00:03:51;;;;;;;14.82;12.00;;;;;;;0.85;62.48;98980.22;10443210;28;20058;-61
2024/01/17 00:08:53;;;;;;;15.52;11.95;;;;;;;0.81;61.74;98976.97;10437288;28;20078;-63
2024/01/17 00:13:54;;;;;;;17.17;12.02;;;;;;;0.67;62.33;98937.66;10417947;28;20118;-60
2024/01/17 00:18:56;;;;;;;16.77;12.95;;;;;;;0.83;62.45;98948.06;10413581;28;20198;-62
2024/01/17 00:23:58;;;;;;;17.55;12.82;;;;;;;0.78;62.30;98937.00;10438674;28;20048;-63
2024/01/17 00:29:00;;;;;;;16.05;12.80;;;;;;;0.85;62.39;98930.44;10439214;28;20279;-61
2024/01/17 00:34:01;;;;;;;15.13;12.18;;;;;;;0.82;62.15;98928.84;10437138;28;20071;-64
2024/01/17 00:39:03;;;;;;;16.63;11.98;;;;;;;0.76;62.19;98912.69;10422172;28;20049;-62
2024/01/17 00:44:05;;;;;;;15.25;11.82;;;;;;;0.69;62.02;98912.19;10439152;28;20052;-64
2024/01/17 00:49:06;;;;;;;13.05;10.63;;;;;;;0.77;62.50;98899.50;10436435;28;20588;-63
2024/01/17 00:54:09;;;;;;;14.23;12.68;;;;;;;0.72;62.18;98885.81;10438743;28;20072;-62
2024/01/17 00:59:11;;;;;;;15.02;11.18;;;;;;;0.63;62.18;98871.53;10377273;28;20061;-64
2024/01/17 01:04:12;;;;;;;12.60;10.38;;;;;;;0.61;62.81;98860.28;10429088;28;20061;-62
2024/01/17 01:09:15;;;;;;;14.20;11.10;;;;;;;0.34;62.74;98845.34;10404151;28;20061;-63
2024/01/17 01:14:17;;;;;;;15.18;10.70;;;;;;;0.21;62.78;98865.34;10373386;28;20049;-62
2024/01/17 01:19:19;;;;;;;14.63;11.25;;;;;;;0.24;63.73;98859.94;10408319;28;20052;-62
2024/01/17 01:24:22;;;;;;;12.57;11.27;;;;;;;0.31;63.76;98858.59;10414311;28;20068;-61
2024/01/17 01:29:23;;;;;;;14.45;11.43;;;;;;;0.17;63.41;98859.44;10430724;28;20064;-63
2024/01/17 01:34:25;;;;;;;16.58;11.50;;;;;;;0.06;64.50;98829.63;10413493;28;20048;-62
2024/01/17 01:39:27;;;;;;;13.20;11.52;;;;;;;0.27;64.08;98833.56;10436649;28;24470;-63
2024/01/17 01:44:28;;;;;;;15.05;11.57;;;;;;;0.37;63.65;98851.34;10414314;28;20059;-63
2024/01/17 01:49:32;;;;;;;12.93;10.60;;;;;;;0.19;63.36;98841.03;10426278;28;20124;-63
2024/01/17 01:54:34;;;;;;;16.80;12.60;;;;;;;0.14;63.62;98833.47;10436379;28;20060;-63
2024/01/17 01:59:36;;;;;;;14.05;10.82;;;;;;;0.04;64.07;98840.19;10431876;28;20075;-63
2024/01/17 02:04:39;;;;;;;17.15;11.88;;;;;;;0.05;63.99;98830.56;10422487;28;20068;-62
2024/01/17 02:09:41;;;;;;;11.95;10.18;;;;;;;0.03;64.05;98793.19;10426334;28;20098;-63
2024/01/17 02:14:43;;;;;;;17.33;10.50;;;;;;;0.15;64.05;98787.19;10412869;28;20059;-63
2024/01/17 02:19:45;;;;;;;13.98;11.48;;;;;;;0.22;64.05;98778.03;10435276;28;20117;-62
2024/01/17 02:24:46;;;;;;;14.80;11.88;;;;;;;0.16;63.72;98752.25;10437240;28;20399;-63
2024/01/17 02:29:48;;;;;;;17.08;12.80;;;;;;;0.23;63.42;98763.19;10433368;28;20048;-62
2024/01/17 02:34:50;;;;;;;13.45;12.05;;;;;;;0.22;64.15;98751.88;10371006;28;20067;-62
2024/01/17 02:39:52;;;;;;;16.13;12.93;;;;;;;0.19;63.67;98732.91;10409966;28;20059;-62
2024/01/17 02:44:55;;;;;;;13.80;10.85;;;;;;;0.23;63.99;98723.94;10398891;28;20052;-63
2024/01/17 02:49:57;;;;;;;13.98;10.23;;;;;;;0.14;64.27;98720.09;10412133;28;20766;-62
2024/01/17 02:54:59;;;;;;;15.48;11.85;;;;;;;0.16;63.58;98707.75;10433431;28;20076;-63
2024/01/17 03:00:02;;;;;;;12.57;9.90;;;;;;;0.10;64.16;98695.06;10433258;28;20052;-62
2024/01/17 03:05:05;;;;;;;11.73;9.73;;;;;;;0.07;63.93;98666.47;10432318;28;20056;-63
2024/01/17 03:10:08;;;;;;;14.30;10.65;;;;;;;0.09;63.99;98683.75;10396778;28;20046;-61
2024/01/17 03:15:10;;;;;;;12.18;10.70;;;;;;;-0.04;64.06;98675.81;10385905;28;20043;-62
2024/01/17 03:20:13;;;;;;;13.98;11.20;;;;;;;-0.12;64.38;98669.38;10428491;28;20194;-64
2024/01/17 03:25:15;;;;;;;13.60;10.82;;;;;;;-0.21;64.35;98649.84;10410325;28;20156;-63
2024/01/17 03:30:17;;;;;;;14.32;10.05;;;;;;;-0.03;64.70;98643.50;10435402;28;20148;-62
2024/01/17 03:35:19;;;;;;;13.82;11.30;;;;;;;-0.12;64.00;98636.25;10442880;28;20059;-63
2024/01/17 03:40:20;;;;;;;12.65;9.75;;;;;;;-0.15;64.43;98628.59;10439914;28;20056;-63
2024/01/17 03:45:22;;;;;;;15.32;10.38;;;;;;;-0.16;64.27;98620.84;10415132;28;20580;-62
2024/01/17 03:50:24;;;;;;;12.93;9.68;;;;;;;-0.28;64.32;98615.41;10409855;28;20160;-64
2024/01/17 03:55:25;;;;;;;11.40;9.68;;;;;;;-0.34;64.51;98607.97;10441119;28;20122;-62
2024/01/17 04:00:27;;;;;;;14.07;10.13;;;;;;;-0.27;64.67;98598.81;10442131;28;20083;-62
2024/01/17 04:05:28;;;;;;;13.18;9.73;;;;;;;-0.26;64.58;98568.25;10440007;28;20060;-63
2024/01/17 04:10:30;;;;;;;14.30;9.80;;;;;;;-0.11;64.49;98577.72;10414495;28;20048;-63
2024/01/17 04:15:31;;;;;;;12.68;10.32;;;;;;;-0.60;63.86;98491.94;10408888;28;20125;-62
2024/01/17 04:20:33;;;;;;;11.45;9.70;;;;;;;-0.10;63.91;98549.81;10396524;28;20119;-63
2024/01/17 04:25:35;;;;;;;13.88;10.75;;;;;;;-0.12;63.33;98544.69;10416326;28;20056;-63
2024/01/17 04:30:37;;;;;;;14.48;10.02;;;;;;;-0.33;63.48;98530.34;10438365;28;20052;-62
2024/01/17 04:35:38;;;;;;;14.68;9.90;;;;;;;-0.27;64.13;98522.97;10442868;28;20060;-62
2024/01/17 04:40:40;;;;;;;12.63;9.43;;;;;;;-0.13;63.26;98501.16;10435884;28;20598;-62
2024/01/17 04:45:41;;;;;;;12.18;9.05;;;;;;;-0.29;63.66;98500.47;10436190;28;20674;-63
2024/01/17 04:50:43;;;;;;;13.40;9.70;;;;;;;-0.33;63.37;98484.13;10437467;28;20132;-63
2024/01/17 04:55:45;;;;;;;13.07;9.40;;;;;;;-0.34;64.27;98481.63;10433586;28;20147;-63
2024/01/17 05:00:46;;;;;;;13.95;10.05;;;;;;;-0.45;63.45;98441.31;10437597;28;20087;-63
2024/01/17 05:05:48;;;;;;;10.40;8.88;;;;;;;-0.46;63.88;98420.50;10422743;28;20519;-61
2024/01/17 05:10:50;;;;;;;11.73;8.73;;;;;;;-0.27;63.41;98441.03;10419344;28;20527;-62
2024/01/17 05:15:51;;;;;;;11.70;8.48;;;;;;;-0.32;63.17;98427.44;10439600;28;20149;-62
2024/01/17 05:20:53;;;;;;;15.13;9.15;;;;;;;-0.21;64.27;98409.25;10440099;28;20044;-62
2024/01/17 05:25:54;;;;;;;12.77;10.20;;;;;;;-0.22;62.88;98397.97;10437980;28;20189;-63
2024/01/17 05:30:56;;;;;;;12.45;9.50;;;;;;;-0.23;62.94;98385.00;10429668;28;20052;-62
2024/01/17 05:35:58;;;;;;;12.13;8.63;;;;;;;-0.21;63.20;98377.88;10436283;28;20049;-63
2024/01/17 05:40:59;;;;;;;10.98;8.88;;;;;;;-0.25;63.05;98371.19;10437844;28;20044;-63
2024/01/17 05:46:02;;;;;;;11.02;9.15;;;;;;;-0.09;63.70;98353.53;10408186;28;20450;-62
2024/01/17 05:51:05;;;;;;;21.45;11.77;;;;;;;-0.29;63.26;98331.31;10417308;28;20052;-63
2024/01/17 05:56:08;;;;;;;14.25;10.13;;;;;;;-0.02;63.20;98357.41;10421699;28;20060;-62
2024/01/17 06:01:10;;;;;;;12.68;9.75;;;;;;;-0.07;62.51;98327.28;10434682;28;20051;-62
2024/01/17 06:06:11;;;;;;;13.68;10.57;;;;;;;-0.29;63.09;98312.19;10382684;28;20048;-63
2024/01/17 06:11:13;;;;;;;13.82;12.05;;;;;;;-0.19;62.71;98321.09;10417884;28;20551;-64
2024/01/17 06:16:15;;;;;;;16.35;9.60;;;;;;;-0.30;62.89;98307.91;10400644;28;20131;-65
2024/01/17 06:21:17;;;;;;;12.65;9.55;;;;;;;-0.53;63.62;98273.66;10409327;28;20118;-65
2024/01/17 06:26:19;;;;;;;13.13;9.05;;;;;;;-0.40;63.72;98284.97;10438583;28;20052;-65
2024/01/17 06:31:25;;;;;;;14.32;10.52;;;;;;;-0.34;63.84;98288.16;10410024;28;20700;-64
2024/01/17 06:36:27;;;;;;;10.45;9.45;;;;;;;-0.30;63.58;98282.59;10436709;28;20426;-64
2024/01/17 06:41:30;;;;;;;12.30;9.68;;;;;;;-0.22;63.74;98274.25;10435895;28;20799;-66
2024/01/17 06:46:31;;;;;;;10.80;8.93;;;;;;;-0.37;63.84;98263.84;10431424;28;20052;-63
2024/01/17 06:51:33;;;;;;;14.23;10.27;;;;;;;-0.16;63.91;98267.75;10439212;28;20087;-62
2024/01/17 06:56:36;;;;;;;11.93;9.65;;;;;;;-0.03;63.65;98261.56;10431647;28;20537;-63
2024/01/17 07:01:38;;;;;;;10.50;9.35;;;;;;;0.08;63.80;98249.53;10392325;28;20085;-63
2024/01/17 07:06:40;;;;;;;15.15;9.80;;;;;;;0.10;63.32;98239.78;10422249;28;20493;-64
2024/01/17 07:11:41;;;;;;;12.30;9.45;;;;;;;0.16;63.32;98241.97;10443785;28;20272;-64
2024/01/17 07:16:48;;;;;;;11.73;9.37;;;;;;;0.20;62.84;98225.13;10430557;28;20526;-63
2024/01/17 07:21:49;;;;;;;14.75;9.85;;;;;;;0.17;62.73;98204.41;10443282;28;20406;-62
2024/01/17 07:26:51;;;;;;;13.02;10.38;;;;;;;0.25;62.99;98207.31;10414280;28;20127;-64
2024/01/17 07:31:52;;;;;;;12.10;9.85;;;;;;;0.28;62.91;98201.03;10420063;28;20108;-64
2024/01/17 07:36:56;;;;;;;15.10;10.10;;;;;;;0.32;62.58;98192.84;10444686;28;20051;-64
2024/01/17 07:41:59;;;;;;;13.50;9.68;;;;;;;0.34;63.16;98187.50;10406463;28;20135;-63
2024/01/17 07:47:00;;;;;;;13.05;10.52;;;;;;;0.18;62.82;98190.38;10400339;28;20640;-65
2024/01/17 07:52:02;;;;;;;14.20;11.10;;;;;;;0.24;63.24;98163.78;10440871;28;20049;-65
2024/01/17 07:57:04;;;;;;;12.88;9.88;;;;;;;0.34;63.17;98149.06;10427074;28;20061;-63
2024/01/17 08:02:06;;;;;;;13.07;9.85;;;;;;;0.46;63.40;98141.28;10430858;28;20045;-62
2024/01/17 08:07:08;;;;;;;14.10;10.23;;;;;;;0.53;62.97;98126.81;10414778;28;20545;-62
2024/01/17 08:12:09;;;;;;;12.45;9.88;;;;;;;0.53;62.79;98101.44;10435761;28;20083;-62
2024/01/17 08:17:13;;;;;;;15.38;12.00;;;;;;;0.46;62.91;98070.59;10435111;28;20060;-62
2024/01/17 08:22:15;;;;;;;14.13;10.80;;;;;;;0.66;62.49;98085.69;10418105;28;20134;-64
2024/01/17 08:27:16;;;;;;;14.45;11.23;;;;;;;0.74;62.98;98074.63;10420799;28;20063;-64
2024/01/17 08:32:18;;;;;;;16.00;11.15;;;;;;;0.77;63.01;98065.72;10428262;28;20345;-62
2024/01/17 08:37:19;;;;;;;13.48;10.98;;;;;;;0.84;62.82;98057.28;10426324;28;20052;-63
2024/01/17 08:42:20;;;;;;;14.55;10.90;;;;;;;0.84;62.19;98053.81;10423025;28;20200;-63
2024/01/17 08:47:24;;;;;;;15.02;11.02;;;;;;;0.80;61.85;98050.59;10426600;28;20565;-64
2024/01/17 08:52:26;;;;;;;11.82;10.23;;;;;;;0.77;62.39;98042.16;10413050;28;20056;-61
2024/01/17 08:57:28;;;;;;;14.20;12.07;;;;;;;0.69;61.65;98024.38;10418707;28;20068;-62
2024/01/17 09:02:29;;;;;;;13.25;10.95;;;;;;;0.84;62.71;98014.50;10436794;28;20060;-62
2024/01/17 09:07:31;;;;;;;14.18;10.68;;;;;;;0.84;62.16;98004.03;10418985;28;20109;-62
2024/01/17 09:12:36;;;;;;;16.63;12.35;;;;;;;0.83;63.57;97981.44;10423953;28;20048;-63
2024/01/17 09:17:37;;;;;;;15.70;11.55;;;;;;;0.80;63.93;97979.06;10429233;28;20135;-61
2024/01/17 09:22:39;;;;;;;15.35;11.85;;;;;;;0.82;64.38;97964.88;10433418;28;20068;-61
2024/01/17 09:27:40;;;;;;;14.63;11.70;;;;;;;0.95;65.12;97954.28;10417459;28;20137;-63
2024/01/17 09:32:44;;;;;;;14.75;13.02;;;;;;;0.92;64.33;97927.50;10431644;28;20340;-64
2024/01/17 09:37:46;;;;;;;16.55;13.60;;;;;;;1.08;65.29;97932.38;10438498;28;20123;-62
2024/01/17 09:42:48;;;;;;;13.88;11.95;;;;;;;1.09;65.24;97936.66;10438480;28;20084;-63
2024/01/17 09:48:02;;;;;;;16.55;12.30;;;;;;;1.03;65.63;97930.94;10407777;28;20049;-64
2024/01/17 09:53:12;;;;;;;15.70;12.70;;;;;;;0.98;66.59;97932.28;10414354;28;20762;-63
2024/01/17 09:58:15;;;;;;;14.68;11.13;;;;;;;0.94;67.20;97917.75;10439657;28;20649;-63
2024/01/17 10:03:20;;;;;;;15.98;11.82;;;;;;;1.10;68.06;97885.94;10426139;28;20118;-61
2024/01/17 10:08:23;;;;;;;10.90;8.80;;;;;;;1.32;67.69;97878.03;10423769;28;20133;-61
2024/01/17 10:13:24;;;;;;;14.25;12.00;;;;;;;1.41;67.80;97861.53;10420310;28;20052;-64
2024/01/17 10:18:28;;;;;;;15.32;11.68;;;;;;;1.41;67.87;97840.56;10440229;28;20060;-63
2024/01/17 10:23:30;;;;;;;17.35;13.68;;;;;;;1.53;67.98;97843.13;10415487;28;20045;-60
2024/01/17 10:28:33;;;;;;;13.88;11.55;;;;;;;1.46;68.01;97815.78;10410357;28;20326;-60
2024/01/17 10:33:39;;;;;;;;;;;;;;;1.56;68.35;97814.03;10418188;28;20646;-63
2024/01/17 10:38:44;;;;;;;14.20;11.63;;;;;;;1.50;68.75;97807.53;10422745;28;19934;-61
2024/01/17 10:43:56;;;;;;;14.07;12.60;;;;;;;1.60;68.69;97789.22;10371680;28;20056;-63
2024/01/17 10:48:59;;;;;;;14.23;12.60;;;;;;;1.68;69.10;97763.22;10436066;28;20055;-61
2024/01/17 10:54:03;;;;;;;14.57;13.07;;;;;;;1.68;69.87;97759.75;10434613;28;20051;-63
2024/01/17 10:59:07;;;;;;;17.48;13.23;;;;;;;1.73;70.10;97749.72;10431147;28;20052;-63
2024/01/17 11:04:16;;;;;;;16.85;14.48;;;;;;;1.75;70.88;97743.34;10417755;28;20547;-62
2024/01/17 11:09:22;;;;;;;18.05;14.18;;;;;;;1.79;71.11;97729.97;10399182;28;20051;-61
2024/01/17 11:14:25;;;;;;;14.00;12.40;;;;;;;1.77;71.92;97709.97;10434494;28;20958;-63
2024/01/17 11:19:27;;;;;;;19.05;12.00;;;;;;;1.80;72.13;97692.31;10411339;28;20063;-64
2024/01/17 11:24:43;;;;;;;16.17;13.32;;;;;;;1.80;73.16;97697.56;10424290;28;20048;-61
2024/01/17 11:30:01;;;;;;;14.98;13.48;;;;;;;1.87;73.10;97696.91;10414782;28;20049;-64
2024/01/17 11:35:03;;;;;;;14.82;12.85;;;;;;;1.86;73.25;97691.78;10398782;28;20060;-62
2024/01/17 11:40:05;;;;;;;13.48;12.07;;;;;;;1.85;73.24;97688.34;10391654;28;20182;-64
2024/01/17 11:45:08;;;;;;;14.90;12.48;;;;;;;1.90;74.13;97674.81;10382380;28;20699;-63
2024/01/17 11:50:19;;;;;;;16.70;14.55;;;;;;;1.93;75.07;97659.63;10420957;28;20056;-63
2024/01/17 11:55:30;;;;;;;14.98;13.20;;;;;;;1.99;75.25;97639.91;10418825;28;20064;-63
2024/01/17 12:00:31;;;;;;;14.45;12.10;;;;;;;2.02;75.56;97631.78;10433292;28;20067;-62
2024/01/17 12:05:36;;;;;;;14.20;12.75;;;;;;;1.78;75.59;97582.28;10438802;28;20064;-61
2024/01/17 12:10:37;;;;;;;15.45;12.98;;;;;;;2.04;75.68;97606.25;10437921;28;20056;-62
2024/01/17 12:15:39;;;;;;;16.70;13.65;;;;;;;2.04;75.73;97585.25;10441650;28;20053;-65
2024/01/17 12:20:41;;;;;;;15.52;12.98;;;;;;;2.02;76.68;97549.59;10400592;28;20056;-63
2024/01/17 12:25:43;;;;;;;15.40;13.45;;;;;;;2.14;76.27;97539.81;10416207;28;20842;-63
2024/01/17 12:30:56;;;;;;;14.80;13.20;;;;;;;2.19;76.30;97513.97;10419908;28;20764;-63
2024/01/17 12:36:03;;;;;;;14.40;12.90;;;;;;;2.20;75.70;97494.66;10441819;28;20045;-64
2024/01/17 12:41:05;;;;;;;15.60;13.57;;;;;;;2.24;76.34;97490.78;10402578;28;20048;-63
2024/01/17 12:46:09;;;;;;;16.65;13.23;;;;;;;2.23;76.77;97468.13;10411582;28;21224;-63
2024/01/17 12:51:11;;;;;;;17.10;14.95;;;;;;;2.27;77.33;97445.88;10421816;28;20712;-63
2024/01/17 12:56:14;;;;;;;15.13;13.07;;;;;;;2.16;77.16;97404.03;10362720;28;20253;-62
2024/01/17 13:01:17;;;;;;;14.52;12.80;;;;;;;2.23;77.01;97407.75;10404439;28;20287;-63
2024/01/17 13:06:21;;;;;;;15.45;13.57;;;;;;;2.28;77.89;97402.91;10422194;28;20048;-60
2024/01/17 13:11:34;;;;;;;15.07;13.40;;;;;;;2.30;78.04;97416.72;10413448;28;20055;-60
2024/01/17 13:16:38;;;;;;;14.38;12.85;;;;;;;2.34;78.03;97402.34;10431525;28;20111;-63
2024/01/17 13:21:41;;;;;;;15.23;13.60;;;;;;;2.27;77.96;97411.75;10436729;28;20139;-62
2024/01/17 13:26:43;;;;;;;15.18;13.75;;;;;;;2.28;78.45;97400.28;10415076;28;20129;-63
2024/01/17 13:31:45;;;;;;;16.23;14.52;;;;;;;2.32;78.93;97383.28;10413805;28;20056;-64
2024/01/17 13:36:47;;;;;;;15.25;12.30;;;;;;;2.36;79.01;97358.41;10420585;28;20088;-65
2024/01/17 13:41:51;;;;;;;14.85;13.23;;;;;;;2.28;78.92;97337.28;10437874;28;20052;-63
2024/01/17 13:46:53;;;;;;;13.73;12.38;;;;;;;2.23;79.04;97294.91;10389184;28;20470;-64
2024/01/17 13:51:58;;;;;;;14.55;13.07;;;;;;;2.44;78.74;97334.88;10437391;28;20044;-63
2024/01/17 13:57:00;;;;;;;14.30;12.52;;;;;;;2.35;79.87;97288.50;10440896;28;20137;-65
2024/01/17 14:02:02;;;;;;;15.60;13.90;;;;;;;2.49;80.17;97326.56;10440168;28;20104;-63
2024/01/17 14:07:04;;;;;;;14.45;12.85;;;;;;;2.45;81.44;97278.78;10437741;28;20339;-63
2024/01/17 14:12:06;;;;;;;14.35;12.90;;;;;;;2.58;81.47;97290.72;10422982;28;20198;-64
2024/01/17 14:17:11;;;;;;;14.65;13.13;;;;;;;2.53;81.59;97293.81;10433952;28;20084;-65
2024/01/17 14:22:13;;;;;;;14.55;13.15;;;;;;;2.59;81.69;97287.97;10392576;28;20049;-62
2024/01/17 14:27:14;;;;;;;14.25;12.80;;;;;;;2.65;81.97;97283.94;10408626;28;20128;-62
2024/01/17 14:32:17;;;;;;;17.48;15.48;;;;;;;2.61;82.09;97279.94;10404667;28;20813;-64
2024/01/17 14:37:19;;;;;;;16.27;13.45;;;;;;;2.61;81.63;97262.41;10429032;28;20056;-62
2024/01/17 14:42:23;;;;;;;14.20;12.80;;;;;;;2.65;81.78;97257.66;10413606;28;20831;-60
2024/01/17 14:47:24;;;;;;;13.85;12.55;;;;;;;2.68;82.13;97248.69;10422639;28;20573;-63
2024/01/17 14:52:26;;;;;;;12.52;11.07;;;;;;;2.69;81.56;97208.28;10416448;28;20063;-63
2024/01/17 14:57:27;;;;;;;15.07;13.25;;;;;;;2.66;81.88;97222.56;10428936;28;20138;-64
2024/01/17 15:02:30;;;;;;;13.85;12.43;;;;;;;2.65;81.93;97205.97;10429048;28;20048;-63
2024/01/17 15:07:31;;;;;;;13.77;12.18;;;;;;;2.72;81.90;97182.56;10391763;28;20130;-62
2024/01/17 15:12:33;;;;;;;13.13;11.88;;;;;;;2.60;82.01;97166.19;10430668;28;20045;-63
2024/01/17 15:17:35;;;;;;;13.32;12.02;;;;;;;2.74;82.51;97156.97;10429949;28;20064;-63
2024/01/17 15:22:37;;;;;;;13.57;12.15;;;;;;;2.71;82.41;97173.03;10429519;28;20053;-65
2024/01/17 15:27:41;;;;;;;12.75;11.52;;;;;;;2.65;82.47;97168.38;10416739;28;20132;-62
2024/01/17 15:32:42;;;;;;;12.32;11.13;;;;;;;2.74;82.65;97185.84;10433251;28;20075;-63
2024/01/17 15:37:44;;;;;;;13.98;12.35;;;;;;;2.74;82.99;97156.16;10397859;28;20048;-64
2024/01/17 15:42:47;;;;;;;14.15;12.65;;;;;;;2.76;83.18;97139.28;10414353;28;20121;-61
2024/01/17 15:47:49;;;;;;;13.93;12.40;;;;;;;2.76;83.33;97155.03;10440245;28;20223;-65
2024/01/17 15:52:50;;;;;;;12.15;11.05;;;;;;;2.75;83.40;97126.28;10442881;28;20616;-62
2024/01/17 15:57:53;;;;;;;12.70;11.45;;;;;;;2.76;83.87;97128.75;10424520;28;20068;-64
2024/01/17 16:02:55;;;;;;;11.57;10.55;;;;;;;2.80;83.71;97127.47;10440032;28;20048;-64
2024/01/17 16:07:57;;;;;;;11.85;10.68;;;;;;;2.87;84.05;97117.19;10440178;28;20099;-63
2024/01/17 16:12:59;;;;;;;22.02;19.67;;;;;;;2.87;84.52;97106.69;10385326;28;20057;-63
2024/01/17 16:18:01;;;;;;;13.15;11.88;;;;;;;2.83;84.75;97127.16;10425419;28;20172;-63
2024/01/17 16:23:04;;;;;;;11.40;10.30;;;;;;;2.91;84.47;97109.81;10406300;28;20048;-62
2024/01/17 16:28:05;;;;;;;12.20;11.00;;;;;;;2.90;84.65;97108.16;10423049;28;20052;-61
2024/01/17 16:33:07;;;;;;;10.70;9.70;;;;;;;2.89;84.75;97106.53;10439608;28;20056;-62
2024/01/17 16:38:09;;;;;;;11.32;10.23;;;;;;;2.90;85.09;97102.91;10420599;28;20122;-61
2024/01/17 16:43:12;;;;;;;10.05;9.05;;;;;;;2.94;85.16;97112.13;10423350;28;20052;-62
2024/01/17 16:48:14;;;;;;;10.32;9.43;;;;;;;2.91;85.92;97108.03;10386651;28;20045;-63
2024/01/17 16:53:17;;;;;;;10.77;9.77;;;;;;;2.94;85.92;97094.59;10433947;28;20053;-63
2024/01/17 16:58:18;;;;;;;10.55;9.50;;;;;;;2.99;85.48;97125.66;10423949;28;20053;-62
2024/01/17 17:03:22;;;;;;;10.95;9.95;;;;;;;3.00;85.13;97103.66;10410995;28;20048;-62
2024/01/17 17:08:23;;;;;;;10.27;9.38;;;;;;;3.04;85.48;97123.41;10437090;28;20047;-62
2024/01/17 17:13:26;;;;;;;10.82;9.82;;;;;;;3.01;85.54;97105.31;10437523;28;20663;-63
2024/01/17 17:18:27;;;;;;;14.02;12.63;;;;;;;3.03;86.27;97097.28;10435622;28;20044;-63
2024/01/17 17:23:29;;;;;;;11.73;10.63;;;;;;;3.10;86.19;97100.94;10433432;28;20064;-64
2024/01/17 17:28:31;;;;;;;12.15;11.05;;;;;;;3.10;86.27;97099.13;10435880;28;20663;-63
2024/01/17 17:33:33;;;;;;;11.20;10.10;;;;;;;3.11;86.33;97098.16;10419530;28;20167;-64
2024/01/17 17:38:34;;;;;;;10.48;9.50;;;;;;;3.19;86.45;97108.72;10436703;28;20539;-63
2024/01/17 17:43:36;;;;;;;11.95;10.82;;;;;;;3.20;86.37;97101.66;10427140;28;20048;-62
2024/01/17 17:48:38;;;;;;;11.68;10.48;;;;;;;3.21;87.25;97102.47;10407758;28;20218;-61
2024/01/17 17:53:40;;;;;;;14.38;13.00;;;;;;;3.23;86.78;97090.00;10394943;28;20052;-62
2024/01/17 17:58:41;;;;;;;11.82;10.70;;;;;;;3.22;86.57;97091.81;10433218;28;20133;-64
2024/01/17 18:03:42;;;;;;;13.10;11.80;;;;;;;3.28;86.30;97095.63;10404521;28;20170;-62
2024/01/17 18:08:46;;;;;;;12.10;11.00;;;;;;;3.12;86.86;97099.81;10432621;28;20060;-62
2024/01/17 18:13:48;;;;;;;13.43;12.20;;;;;;;3.17;86.74;97094.91;10432740;28;20051;-68
2024/01/17 18:18:54;;;;;;;14.57;13.18;;;;;;;3.16;86.43;97103.75;10432000;28;20151;-63
2024/01/17 18:23:56;;;;;;;14.48;13.15;;;;;;;3.18;86.29;97099.19;10435377;28;20135;-63
2024/01/17 18:28:57;;;;;;;14.85;13.35;;;;;;;3.19;86.38;97108.72;10434628;28;20138;-62
2024/01/17 18:34:02;;;;;;;12.90;11.60;;;;;;;3.23;86.21;97092.63;10421624;28;20052;-62
2024/01/17 18:39:03;;;;;;;14.20;11.90;;;;;;;3.22;86.67;97096.25;10416810;28;20133;-64
2024/01/17 18:44:05;;;;;;;14.35;12.85;;;;;;;3.19;86.97;97100.81;10414916;28;20299;-62
2024/01/17 18:49:09;;;;;;;14.13;12.80;;;;;;;3.15;87.38;97093.41;10378029;28;20131;-62
2024/01/17 18:54:12;;;;;;;14.93;13.43;;;;;;;3.26;87.16;97108.94;10433800;28;20048;-64
2024/01/17 18:59:13;;;;;;;15.95;14.32;;;;;;;3.23;86.99;97118.91;10410934;28;20080;-63
2024/01/17 19:04:16;;;;;;;16.45;14.60;;;;;;;3.26;86.69;97113.34;10411841;28;20058;-63
2024/01/17 19:09:18;;;;;;;17.15;15.55;;;;;;;3.26;86.87;97119.44;10427963;28;20049;-64
2024/01/17 19:14:20;;;;;;;14.63;13.10;;;;;;;3.10;86.55;97087.78;10423335;28;20674;-64
2024/01/17 19:19:22;;;;;;;14.48;13.05;;;;;;;3.26;86.65;97113.34;10406369;28;20106;-65
2024/01/17 19:24:26;;;;;;;;;;;;;;;3.24;87.25;97115.31;10443226;28;20534;-63
2024/01/17 19:29:28;;;;;;;13.20;11.85;;;;;;;3.26;86.89;97123.88;10423228;28;19928;-64
2024/01/17 19:34:30;;;;;;;14.77;13.38;;;;;;;3.20;87.58;97138.47;10430737;28;20053;-65
2024/01/17 19:39:32;;;;;;;12.98;11.65;;;;;;;3.24;86.87;97142.41;10429934;28;20555;-63
2024/01/17 19:44:34;;;;;;;13.43;12.02;;;;;;;3.22;86.97;97144.38;10421118;28;20068;-64
2024/01/17 19:49:38;;;;;;;12.65;11.40;;;;;;;3.27;86.99;97151.81;10419242;28;20117;-64
2024/01/17 19:54:40;;;;;;;11.27;10.20;;;;;;;3.28;86.71;97153.47;10439230;28;20056;-63
2024/01/17 19:59:43;;;;;;;13.57;12.18;;;;;;;3.27;87.08;97159.69;10403953;28;20139;-64
2024/01/17 20:04:45;;;;;;;13.07;11.82;;;;;;;3.28;86.99;97180.56;10384585;28;20123;-65
2024/01/17 20:09:49;;;;;;;12.07;10.88;;;;;;;3.27;86.98;97170.22;10418419;28;22063;-65
2024/01/17 20:14:51;;;;;;;13.63;12.23;;;;;;;3.31;86.81;97182.91;10413778;28;20051;-65
2024/01/17 20:19:55;;;;;;;12.88;11.60;;;;;;;3.30;86.64;97194.41;10423410;28;20060;-63
2024/01/17 20:24:57;;;;;;;13.38;11.98;;;;;;;3.32;86.19;97208.22;10446251;28;20133;-65
2024/01/17 20:30:01;;;;;;;15.60;14.07;;;;;;;3.30;85.74;97198.81;10396044;28;20731;-65
2024/01/17 20:35:03;;;;;;;17.02;13.88;;;;;;;3.27;85.39;97199.97;10429162;28;20455;-66
2024/01/17 20:40:08;;;;;;;14.55;13.05;;;;;;;3.22;85.74;97212.75;10434967;28;20825;-66
2024/01/17 20:45:10;;;;;;;15.07;13.48;;;;;;;3.25;85.48;97224.75;10425817;28;20060;-65
2024/01/17 20:50:15;;;;;;;14.35;12.85;;;;;;;3.20;85.54;97241.00;10433511;28;20052;-64
2024/01/17 20:55:17;;;;;;;16.60;14.80;;;;;;;3.28;85.33;97243.69;10425005;28;20048;-63
2024/01/17 21:00:19;;;;;;;14.98;13.38;;;;;;;3.25;85.26;97256.31;10411544;28;20186;-62
2024/01/17 21:05:21;;;;;;;14.25;12.82;;;;;;;3.28;85.88;97267.34;10398890;28;20046;-66
2024/01/17 21:10:24;;;;;;;15.10;13.55;;;;;;;3.24;85.98;97273.88;10423587;28;20063;-63
2024/01/17 21:15:25;;;;;;;13.70;12.25;;;;;;;3.21;85.49;97263.66;10425894;28;20806;-63
2024/01/17 21:20:28;;;;;;;13.32;11.38;;;;;;;3.28;85.19;97295.44;10414836;28;20148;-63
2024/01/17 21:25:32;;;;;;;12.93;11.53;;;;;;;3.19;85.23;97290.09;10435951;28;20521;-63
2024/01/17 21:30:34;;;;;;;18.73;14.65;;;;;;;3.11;85.54;97303.16;10418871;28;20525;-65
2024/01/17 21:35:35;;;;;;;13.95;12.13;;;;;;;3.11;85.92;97318.94;10402267;28;20756;-64
2024/01/17 21:40:37;;;;;;;11.45;10.35;;;;;;;3.07;86.42;97316.75;10411818;28;20056;-64
2024/01/17 21:45:39;;;;;;;11.57;9.35;;;;;;;3.07;86.57;97325.44;10423969;28;20132;-62
2024/01/17 21:50:41;;;;;;;10.80;9.70;;;;;;;3.09;86.55;97327.94;10412168;28;20629;-63
2024/01/17 21:55:43;;;;;;;10.55;9.45;;;;;;;3.12;86.48;97344.25;10439991;28;20082;-64
2024/01/17 22:00:44;;;;;;;11.48;9.35;;;;;;;3.10;86.84;97356.69;10438845;28;20174;-63
2024/01/17 22:05:46;;;;;;;10.10;9.00;;;;;;;3.14;86.99;97373.03;10403412;28;20506;-63
2024/01/17 22:10:49;;;;;;;10.40;9.15;;;;;;;3.16;86.98;97387.66;10432365;28;20727;-63
2024/01/17 22:15:51;;;;;;;10.43;9.13;;;;;;;3.22;86.96;97398.56;10430304;28;20048;-63
2024/01/17 22:20:52;;;;;;;9.98;9.02;;;;;;;3.19;87.18;97403.13;10426238;28;20044;-63
2024/01/17 22:25:55;;;;;;;8.82;7.90;;;;;;;3.23;86.95;97410.72;10412424;28;20048;-64
2024/01/17 22:30:56;;;;;;;9.43;8.43;;;;;;;3.25;86.96;97417.50;10421383;28;20052;-62
2024/01/17 22:35:58;;;;;;;8.60;7.47;;;;;;;3.19;86.33;97415.44;10419656;28;20716;-62
2024/01/17 22:40:59;;;;;;;9.57;8.65;;;;;;;3.26;86.68;97432.31;10409187;28;20709;-61
2024/01/17 22:46:01;;;;;;;10.18;8.38;;;;;;;3.21;86.54;97437.16;10434663;28;20044;-63
2024/01/17 22:51:03;;;;;;;8.82;7.93;;;;;;;3.09;87.84;97447.06;10430915;28;20143;-63
2024/01/17 22:56:05;;;;;;;10.18;8.00;;;;;;;3.13;87.46;97440.50;10434819;28;20106;-67
2024/01/17 23:01:07;;;;;;;10.00;8.15;;;;;;;3.17;87.18;97436.63;10419106;28;20155;-62
2024/01/17 23:06:08;;;;;;;8.27;7.38;;;;;;;3.23;86.78;97444.88;10411756;28;20059;-63
2024/01/17 23:11:11;;;;;;;8.45;7.43;;;;;;;3.22;87.13;97454.59;10427968;28;20057;-62
2024/01/17 23:16:25;;;;;;;9.45;8.43;;;;;;;3.29;86.80;97454.84;10434705;28;20151;-64